sensor_id;sensor_type;location;lat;lon;timestamp;P1;durP1;ratioP1;P2;durP2;ratioP2
20110;SDS011;10216;42.658;23.248;2023-03-03T00:01:02;5.33;;;4.37;;
20110;SDS011;10216;42.658;23.248;2023-03-03T00:03:28;4.67;;;3.57;;
20110;SDS011;10216;42.658;23.248;2023-03-03T00:05:53;4.60;;;4.20;;
20110;SDS011;10216;42.658;23.248;2023-03-03T00:08:19;5.83;;;5.00;;
20110;SDS011;10216;42.658;23.248;2023-03-03T00:10:44;4.87;;;3.90;;
20110;SDS011;10216;42.658;23.248;2023-03-03T00:13:17;3.80;;;3.20;;
20110;SDS011;10216;42.658;23.248;2023-03-03T00:15:43;7.27;;;6.10;;
20110;SDS011;10216;42.658;23.248;2023-03-03T00:18:21;5.73;;;4.77;;
20110;SDS011;10216;42.658;23.248;2023-03-03T00:20:53;6.63;;;5.43;;
20110;SDS011;10216;42.658;23.248;2023-03-03T00:23:38;5.30;;;4.80;;
20110;SDS011;10216;42.658;23.248;2023-03-03T00:26:12;6.23;;;4.17;;
20110;SDS011;10216;42.658;23.248;2023-03-03T00:28:43;4.57;;;4.07;;
20110;SDS011;10216;42.658;23.248;2023-03-03T00:31:16;3.97;;;3.57;;
20110;SDS011;10216;42.658;23.248;2023-03-03T00:33:44;5.93;;;3.63;;
20110;SDS011;10216;42.658;23.248;2023-03-03T00:38:39;4.73;;;3.67;;
20110;SDS011;10216;42.658;23.248;2023-03-03T00:41:09;6.83;;;4.23;;
20110;SDS011;10216;42.658;23.248;2023-03-03T00:43:39;5.00;;;3.90;;
20110;SDS011;10216;42.658;23.248;2023-03-03T00:46:04;4.37;;;3.97;;
20110;SDS011;10216;42.658;23.248;2023-03-03T00:50:58;4.20;;;3.50;;
20110;SDS011;10216;42.658;23.248;2023-03-03T00:53:28;4.57;;;4.03;;
20110;SDS011;10216;42.658;23.248;2023-03-03T00:55:54;5.40;;;3.67;;
20110;SDS011;10216;42.658;23.248;2023-03-03T00:58:20;5.80;;;4.43;;
20110;SDS011;10216;42.658;23.248;2023-03-03T01:00:46;4.73;;;4.23;;
20110;SDS011;10216;42.658;23.248;2023-03-03T01:03:12;4.67;;;4.10;;
20110;SDS011;10216;42.658;23.248;2023-03-03T01:05:38;4.93;;;4.20;;
20110;SDS011;10216;42.658;23.248;2023-03-03T01:08:04;4.73;;;4.30;;
20110;SDS011;10216;42.658;23.248;2023-03-03T01:10:30;6.00;;;4.03;;
20110;SDS011;10216;42.658;23.248;2023-03-03T01:12:56;5.23;;;4.03;;
20110;SDS011;10216;42.658;23.248;2023-03-03T01:15:22;5.27;;;4.40;;
20110;SDS011;10216;42.658;23.248;2023-03-03T01:17:47;4.70;;;4.13;;
20110;SDS011;10216;42.658;23.248;2023-03-03T01:20:13;6.03;;;4.87;;
20110;SDS011;10216;42.658;23.248;2023-03-03T01:22:39;6.07;;;4.43;;
20110;SDS011;10216;42.658;23.248;2023-03-03T01:25:04;5.90;;;4.37;;
20110;SDS011;10216;42.658;23.248;2023-03-03T01:27:29;5.80;;;4.03;;
20110;SDS011;10216;42.658;23.248;2023-03-03T01:29:55;5.97;;;4.83;;
20110;SDS011;10216;42.658;23.248;2023-03-03T01:32:21;6.53;;;4.60;;
20110;SDS011;10216;42.658;23.248;2023-03-03T01:34:46;5.57;;;4.53;;
20110;SDS011;10216;42.658;23.248;2023-03-03T01:37:11;4.83;;;4.30;;
20110;SDS011;10216;42.658;23.248;2023-03-03T01:39:37;6.13;;;4.27;;
20110;SDS011;10216;42.658;23.248;2023-03-03T01:42:02;4.57;;;4.07;;
20110;SDS011;10216;42.658;23.248;2023-03-03T01:44:27;6.80;;;4.77;;
20110;SDS011;10216;42.658;23.248;2023-03-03T01:49:32;5.27;;;4.47;;
20110;SDS011;10216;42.658;23.248;2023-03-03T01:52:00;7.27;;;5.17;;
20110;SDS011;10216;42.658;23.248;2023-03-03T01:54:30;5.53;;;5.03;;
20110;SDS011;10216;42.658;23.248;2023-03-03T01:56:58;6.93;;;5.50;;
20110;SDS011;10216;42.658;23.248;2023-03-03T01:59:30;7.37;;;5.27;;
20110;SDS011;10216;42.658;23.248;2023-03-03T02:01:56;5.20;;;4.70;;
20110;SDS011;10216;42.658;23.248;2023-03-03T02:04:21;5.70;;;4.97;;
20110;SDS011;10216;42.658;23.248;2023-03-03T02:06:50;5.10;;;4.40;;
20110;SDS011;10216;42.658;23.248;2023-03-03T02:09:33;6.00;;;4.90;;
20110;SDS011;10216;42.658;23.248;2023-03-03T02:12:03;6.27;;;4.90;;
20110;SDS011;10216;42.658;23.248;2023-03-03T02:14:29;6.37;;;4.27;;
20110;SDS011;10216;42.658;23.248;2023-03-03T02:16:54;5.03;;;4.53;;
20110;SDS011;10216;42.658;23.248;2023-03-03T02:19:25;5.07;;;4.57;;
20110;SDS011;10216;42.658;23.248;2023-03-03T02:21:52;5.23;;;4.73;;
20110;SDS011;10216;42.658;23.248;2023-03-03T02:24:24;6.20;;;4.67;;
20110;SDS011;10216;42.658;23.248;2023-03-03T02:26:51;5.80;;;4.60;;
20110;SDS011;10216;42.658;23.248;2023-03-03T02:29:16;5.47;;;4.97;;
20110;SDS011;10216;42.658;23.248;2023-03-03T02:31:41;6.43;;;4.83;;
20110;SDS011;10216;42.658;23.248;2023-03-03T02:34:07;6.27;;;5.43;;
20110;SDS011;10216;42.658;23.248;2023-03-03T02:36:34;6.77;;;5.37;;
20110;SDS011;10216;42.658;23.248;2023-03-03T02:39:16;5.57;;;4.97;;
20110;SDS011;10216;42.658;23.248;2023-03-03T02:41:49;6.83;;;5.63;;
20110;SDS011;10216;42.658;23.248;2023-03-03T02:44:27;6.57;;;5.63;;
20110;SDS011;10216;42.658;23.248;2023-03-03T02:46:53;6.73;;;4.87;;
20110;SDS011;10216;42.658;23.248;2023-03-03T02:49:22;6.40;;;5.43;;
20110;SDS011;10216;42.658;23.248;2023-03-03T02:51:48;7.03;;;5.10;;
20110;SDS011;10216;42.658;23.248;2023-03-03T02:54:15;5.87;;;5.27;;
20110;SDS011;10216;42.658;23.248;2023-03-03T02:56:40;6.03;;;5.43;;
20110;SDS011;10216;42.658;23.248;2023-03-03T02:59:06;6.17;;;5.33;;
20110;SDS011;10216;42.658;23.248;2023-03-03T03:01:31;6.97;;;5.80;;
20110;SDS011;10216;42.658;23.248;2023-03-03T03:04:01;6.60;;;5.43;;
20110;SDS011;10216;42.658;23.248;2023-03-03T03:06:27;6.57;;;5.13;;
20110;SDS011;10216;42.658;23.248;2023-03-03T03:08:52;6.30;;;5.17;;
20110;SDS011;10216;42.658;23.248;2023-03-03T03:11:17;7.00;;;5.20;;
20110;SDS011;10216;42.658;23.248;2023-03-03T03:13:42;5.70;;;4.93;;
20110;SDS011;10216;42.658;23.248;2023-03-03T03:16:08;7.13;;;4.90;;
20110;SDS011;10216;42.658;23.248;2023-03-03T03:18:34;6.10;;;5.33;;
20110;SDS011;10216;42.658;23.248;2023-03-03T03:21:06;6.13;;;4.97;;
20110;SDS011;10216;42.658;23.248;2023-03-03T03:23:32;7.30;;;5.57;;
20110;SDS011;10216;42.658;23.248;2023-03-03T03:25:58;6.50;;;5.30;;
20110;SDS011;10216;42.658;23.248;2023-03-03T03:28:23;5.97;;;5.37;;
20110;SDS011;10216;42.658;23.248;2023-03-03T03:30:49;6.43;;;5.50;;
20110;SDS011;10216;42.658;23.248;2023-03-03T03:33:15;6.57;;;5.40;;
20110;SDS011;10216;42.658;23.248;2023-03-03T03:35:40;7.67;;;5.57;;
20110;SDS011;10216;42.658;23.248;2023-03-03T03:38:09;7.47;;;5.63;;
20110;SDS011;10216;42.658;23.248;2023-03-03T03:40:35;7.47;;;5.97;;
20110;SDS011;10216;42.658;23.248;2023-03-03T03:43:00;7.00;;;5.30;;
20110;SDS011;10216;42.658;23.248;2023-03-03T03:45:25;8.10;;;5.90;;
20110;SDS011;10216;42.658;23.248;2023-03-03T03:47:50;15.73;;;7.40;;
20110;SDS011;10216;42.658;23.248;2023-03-03T03:50:16;12.23;;;7.70;;
20110;SDS011;10216;42.658;23.248;2023-03-03T03:52:41;16.13;;;9.87;;
20110;SDS011;10216;42.658;23.248;2023-03-03T03:55:07;17.87;;;10.10;;
20110;SDS011;10216;42.658;23.248;2023-03-03T03:57:33;25.90;;;11.93;;
20110;SDS011;10216;42.658;23.248;2023-03-03T03:59:58;12.13;;;8.40;;
20110;SDS011;10216;42.658;23.248;2023-03-03T04:02:23;22.80;;;12.70;;
20110;SDS011;10216;42.658;23.248;2023-03-03T04:04:49;14.03;;;9.70;;
20110;SDS011;10216;42.658;23.248;2023-03-03T04:07:14;32.73;;;18.57;;
20110;SDS011;10216;42.658;23.248;2023-03-03T04:09:39;19.20;;;11.47;;
20110;SDS011;10216;42.658;23.248;2023-03-03T04:12:06;30.13;;;17.67;;
20110;SDS011;10216;42.658;23.248;2023-03-03T04:14:31;12.10;;;8.70;;
20110;SDS011;10216;42.658;23.248;2023-03-03T04:16:59;10.40;;;7.47;;
20110;SDS011;10216;42.658;23.248;2023-03-03T04:19:24;16.27;;;11.23;;
20110;SDS011;10216;42.658;23.248;2023-03-03T04:21:49;14.70;;;9.90;;
20110;SDS011;10216;42.658;23.248;2023-03-03T04:24:15;47.23;;;24.37;;
20110;SDS011;10216;42.658;23.248;2023-03-03T04:26:40;14.23;;;9.93;;
20110;SDS011;10216;42.658;23.248;2023-03-03T04:29:06;38.30;;;20.47;;
20110;SDS011;10216;42.658;23.248;2023-03-03T04:31:31;12.27;;;9.17;;
20110;SDS011;10216;42.658;23.248;2023-03-03T04:33:56;19.00;;;13.30;;
20110;SDS011;10216;42.658;23.248;2023-03-03T04:36:24;16.47;;;9.97;;
20110;SDS011;10216;42.658;23.248;2023-03-03T04:38:49;14.60;;;10.70;;
20110;SDS011;10216;42.658;23.248;2023-03-03T04:41:14;17.47;;;11.17;;
20110;SDS011;10216;42.658;23.248;2023-03-03T04:43:40;16.40;;;11.40;;
20110;SDS011;10216;42.658;23.248;2023-03-03T04:46:05;14.60;;;10.77;;
20110;SDS011;10216;42.658;23.248;2023-03-03T04:48:30;15.67;;;11.40;;
20110;SDS011;10216;42.658;23.248;2023-03-03T04:50:55;15.33;;;10.70;;
20110;SDS011;10216;42.658;23.248;2023-03-03T04:53:21;16.43;;;11.67;;
20110;SDS011;10216;42.658;23.248;2023-03-03T04:55:49;13.70;;;10.30;;
20110;SDS011;10216;42.658;23.248;2023-03-03T04:58:14;12.00;;;8.37;;
20110;SDS011;10216;42.658;23.248;2023-03-03T05:00:40;14.00;;;10.87;;
20110;SDS011;10216;42.658;23.248;2023-03-03T05:03:05;12.70;;;9.33;;
20110;SDS011;10216;42.658;23.248;2023-03-03T05:05:30;12.83;;;9.73;;
20110;SDS011;10216;42.658;23.248;2023-03-03T05:07:55;11.83;;;8.40;;
20110;SDS011;10216;42.658;23.248;2023-03-03T05:10:20;12.83;;;9.67;;
20110;SDS011;10216;42.658;23.248;2023-03-03T05:12:46;14.00;;;9.57;;
20110;SDS011;10216;42.658;23.248;2023-03-03T05:15:12;14.60;;;9.03;;
20110;SDS011;10216;42.658;23.248;2023-03-03T05:17:37;13.00;;;8.93;;
20110;SDS011;10216;42.658;23.248;2023-03-03T05:20:03;11.90;;;9.20;;
20110;SDS011;10216;42.658;23.248;2023-03-03T05:22:29;13.10;;;9.20;;
20110;SDS011;10216;42.658;23.248;2023-03-03T05:24:54;11.27;;;7.93;;
20110;SDS011;10216;42.658;23.248;2023-03-03T05:27:20;12.23;;;8.63;;
20110;SDS011;10216;42.658;23.248;2023-03-03T05:29:45;12.90;;;8.60;;
20110;SDS011;10216;42.658;23.248;2023-03-03T05:32:10;13.77;;;9.00;;
20110;SDS011;10216;42.658;23.248;2023-03-03T05:34:35;13.67;;;9.37;;
20110;SDS011;10216;42.658;23.248;2023-03-03T05:37:01;13.80;;;10.00;;
20110;SDS011;10216;42.658;23.248;2023-03-03T05:39:27;12.60;;;7.70;;
20110;SDS011;10216;42.658;23.248;2023-03-03T05:41:52;11.03;;;8.17;;
20110;SDS011;10216;42.658;23.248;2023-03-03T05:44:18;11.60;;;7.70;;
20110;SDS011;10216;42.658;23.248;2023-03-03T05:46:43;11.43;;;8.27;;
20110;SDS011;10216;42.658;23.248;2023-03-03T05:49:08;12.43;;;8.60;;
20110;SDS011;10216;42.658;23.248;2023-03-03T05:51:33;12.40;;;9.23;;
20110;SDS011;10216;42.658;23.248;2023-03-03T05:53:59;10.03;;;8.27;;
20110;SDS011;10216;42.658;23.248;2023-03-03T05:56:24;10.83;;;7.87;;
20110;SDS011;10216;42.658;23.248;2023-03-03T05:58:49;10.20;;;7.80;;
20110;SDS011;10216;42.658;23.248;2023-03-03T06:01:14;12.27;;;7.83;;
20110;SDS011;10216;42.658;23.248;2023-03-03T06:03:40;11.30;;;8.33;;
20110;SDS011;10216;42.658;23.248;2023-03-03T06:06:05;11.00;;;7.60;;
20110;SDS011;10216;42.658;23.248;2023-03-03T06:08:31;12.03;;;7.63;;
20110;SDS011;10216;42.658;23.248;2023-03-03T06:10:56;12.27;;;7.50;;
20110;SDS011;10216;42.658;23.248;2023-03-03T06:13:22;9.80;;;7.27;;
20110;SDS011;10216;42.658;23.248;2023-03-03T06:15:47;8.97;;;6.33;;
20110;SDS011;10216;42.658;23.248;2023-03-03T06:18:12;10.97;;;7.53;;
20110;SDS011;10216;42.658;23.248;2023-03-03T06:20:37;9.93;;;7.23;;
20110;SDS011;10216;42.658;23.248;2023-03-03T06:23:03;20.57;;;10.97;;
20110;SDS011;10216;42.658;23.248;2023-03-03T06:25:28;17.17;;;11.17;;
20110;SDS011;10216;42.658;23.248;2023-03-03T06:27:53;9.30;;;6.90;;
20110;SDS011;10216;42.658;23.248;2023-03-03T06:30:19;13.57;;;7.07;;
20110;SDS011;10216;42.658;23.248;2023-03-03T06:32:44;13.40;;;8.23;;
20110;SDS011;10216;42.658;23.248;2023-03-03T06:35:10;10.03;;;6.27;;
20110;SDS011;10216;42.658;23.248;2023-03-03T06:37:35;9.97;;;7.07;;
20110;SDS011;10216;42.658;23.248;2023-03-03T06:40:01;9.60;;;7.00;;
20110;SDS011;10216;42.658;23.248;2023-03-03T06:42:26;11.30;;;7.03;;
20110;SDS011;10216;42.658;23.248;2023-03-03T06:44:51;8.70;;;6.60;;
20110;SDS011;10216;42.658;23.248;2023-03-03T06:47:17;9.20;;;6.17;;
20110;SDS011;10216;42.658;23.248;2023-03-03T06:49:42;10.03;;;6.80;;
20110;SDS011;10216;42.658;23.248;2023-03-03T06:52:13;19.80;;;13.60;;
20110;SDS011;10216;42.658;23.248;2023-03-03T06:54:38;16.07;;;10.90;;
20110;SDS011;10216;42.658;23.248;2023-03-03T06:57:12;15.77;;;10.07;;
20110;SDS011;10216;42.658;23.248;2023-03-03T06:59:39;11.27;;;8.97;;
20110;SDS011;10216;42.658;23.248;2023-03-03T07:02:08;14.17;;;10.30;;
20110;SDS011;10216;42.658;23.248;2023-03-03T07:04:35;12.97;;;9.83;;
20110;SDS011;10216;42.658;23.248;2023-03-03T07:07:10;17.07;;;11.13;;
20110;SDS011;10216;42.658;23.248;2023-03-03T07:09:39;14.87;;;11.00;;
20110;SDS011;10216;42.658;23.248;2023-03-03T07:12:12;14.97;;;10.67;;
20110;SDS011;10216;42.658;23.248;2023-03-03T07:14:40;15.97;;;11.03;;
20110;SDS011;10216;42.658;23.248;2023-03-03T07:17:09;16.80;;;10.97;;
20110;SDS011;10216;42.658;23.248;2023-03-03T07:19:35;13.43;;;10.10;;
20110;SDS011;10216;42.658;23.248;2023-03-03T07:22:12;16.30;;;12.20;;
20110;SDS011;10216;42.658;23.248;2023-03-03T07:24:38;15.30;;;11.10;;
20110;SDS011;10216;42.658;23.248;2023-03-03T07:27:18;25.60;;;14.87;;
20110;SDS011;10216;42.658;23.248;2023-03-03T07:29:47;15.73;;;11.00;;
20110;SDS011;10216;42.658;23.248;2023-03-03T07:34:56;14.10;;;9.70;;
20110;SDS011;10216;42.658;23.248;2023-03-03T07:37:29;13.77;;;10.53;;
20110;SDS011;10216;42.658;23.248;2023-03-03T07:39:55;13.73;;;10.17;;
20110;SDS011;10216;42.658;23.248;2023-03-03T07:42:22;13.17;;;10.63;;
20110;SDS011;10216;42.658;23.248;2023-03-03T07:44:51;25.00;;;17.30;;
20110;SDS011;10216;42.658;23.248;2023-03-03T07:47:19;18.73;;;14.13;;
20110;SDS011;10216;42.658;23.248;2023-03-03T07:49:44;15.90;;;12.63;;
20110;SDS011;10216;42.658;23.248;2023-03-03T07:52:27;14.77;;;11.37;;
20110;SDS011;10216;42.658;23.248;2023-03-03T07:54:54;19.43;;;11.17;;
20110;SDS011;10216;42.658;23.248;2023-03-03T07:57:35;14.90;;;12.27;;
20110;SDS011;10216;42.658;23.248;2023-03-03T08:04:55;12.50;;;10.57;;
20110;SDS011;10216;42.658;23.248;2023-03-03T08:07:21;15.93;;;12.43;;
20110;SDS011;10216;42.658;23.248;2023-03-03T08:09:59;14.87;;;11.80;;
20110;SDS011;10216;42.658;23.248;2023-03-03T08:14:57;28.43;;;19.87;;
20110;SDS011;10216;42.658;23.248;2023-03-03T08:17:35;21.80;;;18.00;;
20110;SDS011;10216;42.658;23.248;2023-03-03T08:20:01;12.87;;;10.17;;
20110;SDS011;10216;42.658;23.248;2023-03-03T08:22:33;12.90;;;10.53;;
20110;SDS011;10216;42.658;23.248;2023-03-03T08:25:01;13.13;;;11.03;;
20110;SDS011;10216;42.658;23.248;2023-03-03T08:27:26;13.37;;;11.17;;
20110;SDS011;10216;42.658;23.248;2023-03-03T08:29:52;13.27;;;10.83;;
20110;SDS011;10216;42.658;23.248;2023-03-03T08:32:17;13.67;;;11.57;;
20110;SDS011;10216;42.658;23.248;2023-03-03T08:34:42;18.83;;;14.57;;
20110;SDS011;10216;42.658;23.248;2023-03-03T08:37:08;20.27;;;16.03;;
20110;SDS011;10216;42.658;23.248;2023-03-03T08:39:33;11.23;;;9.07;;
20110;SDS011;10216;42.658;23.248;2023-03-03T08:41:58;11.43;;;9.33;;
20110;SDS011;10216;42.658;23.248;2023-03-03T08:44:23;11.67;;;9.17;;
20110;SDS011;10216;42.658;23.248;2023-03-03T08:46:49;11.33;;;10.17;;
20110;SDS011;10216;42.658;23.248;2023-03-03T08:49:14;11.30;;;9.70;;
20110;SDS011;10216;42.658;23.248;2023-03-03T08:51:40;12.77;;;10.13;;
20110;SDS011;10216;42.658;23.248;2023-03-03T08:54:05;12.37;;;9.43;;
20110;SDS011;10216;42.658;23.248;2023-03-03T08:56:30;10.93;;;9.53;;
20110;SDS011;10216;42.658;23.248;2023-03-03T08:58:55;12.07;;;9.63;;
20110;SDS011;10216;42.658;23.248;2023-03-03T09:01:21;11.43;;;9.50;;
20110;SDS011;10216;42.658;23.248;2023-03-03T09:03:46;11.33;;;10.10;;
20110;SDS011;10216;42.658;23.248;2023-03-03T09:06:11;11.13;;;9.57;;
20110;SDS011;10216;42.658;23.248;2023-03-03T09:08:37;9.97;;;8.90;;
20110;SDS011;10216;42.658;23.248;2023-03-03T09:11:08;9.27;;;8.37;;
20110;SDS011;10216;42.658;23.248;2023-03-03T09:13:34;11.20;;;8.63;;
20110;SDS011;10216;42.658;23.248;2023-03-03T09:15:59;10.10;;;9.00;;
20110;SDS011;10216;42.658;23.248;2023-03-03T09:18:30;7.47;;;6.83;;
20110;SDS011;10216;42.658;23.248;2023-03-03T09:20:56;8.47;;;7.67;;
20110;SDS011;10216;42.658;23.248;2023-03-03T09:23:29;8.37;;;7.57;;
20110;SDS011;10216;42.658;23.248;2023-03-03T09:25:55;8.90;;;8.00;;
20110;SDS011;10216;42.658;23.248;2023-03-03T09:28:25;8.13;;;7.30;;
20110;SDS011;10216;42.658;23.248;2023-03-03T09:30:50;20.70;;;15.80;;
20110;SDS011;10216;42.658;23.248;2023-03-03T09:33:27;12.87;;;11.57;;
20110;SDS011;10216;42.658;23.248;2023-03-03T09:35:53;12.10;;;10.70;;
20110;SDS011;10216;42.658;23.248;2023-03-03T09:40:54;12.13;;;10.83;;
20110;SDS011;10216;42.658;23.248;2023-03-03T09:56:20;14.27;;;12.83;;
20110;SDS011;10216;42.658;23.248;2023-03-03T10:01:30;13.10;;;11.70;;
20110;SDS011;10216;42.658;23.248;2023-03-03T10:19:03;18.00;;;16.10;;
20110;SDS011;10216;42.658;23.248;2023-03-03T10:21:44;16.00;;;14.10;;
20110;SDS011;10216;42.658;23.248;2023-03-03T10:24:21;15.23;;;13.73;;
20110;SDS011;10216;42.658;23.248;2023-03-03T10:34:31;15.23;;;13.63;;
20110;SDS011;10216;42.658;23.248;2023-03-03T10:39:38;17.27;;;14.60;;
20110;SDS011;10216;42.658;23.248;2023-03-03T10:42:10;20.40;;;16.43;;
20110;SDS011;10216;42.658;23.248;2023-03-03T10:52:21;19.60;;;16.80;;
20110;SDS011;10216;42.658;23.248;2023-03-03T10:57:23;22.47;;;17.13;;
20110;SDS011;10216;42.658;23.248;2023-03-03T11:17:34;23.30;;;20.53;;
20110;SDS011;10216;42.658;23.248;2023-03-03T11:20:03;23.60;;;20.07;;
20110;SDS011;10216;42.658;23.248;2023-03-03T11:22:40;27.73;;;22.67;;
20110;SDS011;10216;42.658;23.248;2023-03-03T11:38:01;29.17;;;23.93;;
20110;SDS011;10216;42.658;23.248;2023-03-03T11:40:29;27.97;;;23.00;;
20110;SDS011;10216;42.658;23.248;2023-03-03T11:43:01;26.67;;;22.10;;
20110;SDS011;10216;42.658;23.248;2023-03-03T11:45:38;26.57;;;22.30;;
20110;SDS011;10216;42.658;23.248;2023-03-03T11:48:07;26.37;;;22.57;;
20110;SDS011;10216;42.658;23.248;2023-03-03T11:56:18;32.87;;;25.43;;
20110;SDS011;10216;42.658;23.248;2023-03-03T11:58:50;29.10;;;23.53;;
20110;SDS011;10216;42.658;23.248;2023-03-03T12:04:06;24.47;;;21.37;;
20110;SDS011;10216;42.658;23.248;2023-03-03T12:12:26;26.87;;;22.00;;
20110;SDS011;10216;42.658;23.248;2023-03-03T12:15:07;27.90;;;22.10;;
20110;SDS011;10216;42.658;23.248;2023-03-03T12:17:42;29.03;;;22.50;;
20110;SDS011;10216;42.658;23.248;2023-03-03T12:23:10;25.17;;;22.37;;
20110;SDS011;10216;42.658;23.248;2023-03-03T12:25:40;28.17;;;23.23;;
20110;SDS011;10216;42.658;23.248;2023-03-03T12:46:12;12.50;;;10.07;;
20110;SDS011;10216;42.658;23.248;2023-03-03T12:48:41;10.60;;;6.93;;
20110;SDS011;10216;42.658;23.248;2023-03-03T13:17:29;13.53;;;12.17;;
20110;SDS011;10216;42.658;23.248;2023-03-03T13:19:56;9.40;;;8.43;;
20110;SDS011;10216;42.658;23.248;2023-03-03T13:22:38;9.83;;;8.83;;
20110;SDS011;10216;42.658;23.248;2023-03-03T13:27:51;8.83;;;7.93;;
20110;SDS011;10216;42.658;23.248;2023-03-03T13:30:26;9.33;;;8.43;;
20110;SDS011;10216;42.658;23.248;2023-03-03T13:33:16;10.97;;;8.03;;
20110;SDS011;10216;42.658;23.248;2023-03-03T13:35:45;10.83;;;8.33;;
20110;SDS011;10216;42.658;23.248;2023-03-03T13:38:14;11.57;;;9.57;;
20110;SDS011;10216;42.658;23.248;2023-03-03T13:40:43;10.50;;;8.60;;
20110;SDS011;10216;42.658;23.248;2023-03-03T13:50:48;12.07;;;8.20;;
20110;SDS011;10216;42.658;23.248;2023-03-03T13:53:27;9.93;;;8.80;;
20110;SDS011;10216;42.658;23.248;2023-03-03T13:56:40;12.53;;;10.50;;
20110;SDS011;10216;42.658;23.248;2023-03-03T14:01:18;8.07;;;7.27;;
20110;SDS011;10216;42.658;23.248;2023-03-03T14:06:16;7.70;;;6.90;;
20110;SDS011;10216;42.658;23.248;2023-03-03T14:11:23;9.17;;;8.23;;
20110;SDS011;10216;42.658;23.248;2023-03-03T14:16:19;9.73;;;8.13;;
20110;SDS011;10216;42.658;23.248;2023-03-03T14:18:53;10.17;;;8.57;;
20110;SDS011;10216;42.658;23.248;2023-03-03T14:21:22;14.77;;;10.47;;
20110;SDS011;10216;42.658;23.248;2023-03-03T14:24:10;12.33;;;8.60;;
20110;SDS011;10216;42.658;23.248;2023-03-03T14:26:44;11.17;;;8.47;;
20110;SDS011;10216;42.658;23.248;2023-03-03T14:29:15;30.10;;;14.57;;
20110;SDS011;10216;42.658;23.248;2023-03-03T14:31:43;34.87;;;16.27;;
20110;SDS011;10216;42.658;23.248;2023-03-03T14:36:35;10.93;;;8.27;;
20110;SDS011;10216;42.658;23.248;2023-03-03T14:39:04;12.23;;;9.67;;
20110;SDS011;10216;42.658;23.248;2023-03-03T14:41:47;11.57;;;9.47;;
20110;SDS011;10216;42.658;23.248;2023-03-03T14:44:26;11.00;;;9.60;;
20110;SDS011;10216;42.658;23.248;2023-03-03T14:47:11;10.40;;;9.27;;
20110;SDS011;10216;42.658;23.248;2023-03-03T14:49:40;10.37;;;9.33;;
20110;SDS011;10216;42.658;23.248;2023-03-03T14:54:41;10.43;;;9.33;;
20110;SDS011;10216;42.658;23.248;2023-03-03T14:57:11;11.17;;;10.10;;
20110;SDS011;10216;42.658;23.248;2023-03-03T14:59:39;13.80;;;11.67;;
20110;SDS011;10216;42.658;23.248;2023-03-03T15:05:07;13.97;;;12.40;;
20110;SDS011;10216;42.658;23.248;2023-03-03T15:07:36;13.90;;;12.50;;
20110;SDS011;10216;42.658;23.248;2023-03-03T15:10:03;14.30;;;12.80;;
20110;SDS011;10216;42.658;23.248;2023-03-03T15:17:34;15.40;;;12.63;;
20110;SDS011;10216;42.658;23.248;2023-03-03T15:25:22;14.70;;;13.30;;
20110;SDS011;10216;42.658;23.248;2023-03-03T15:33:00;20.20;;;17.90;;
20110;SDS011;10216;42.658;23.248;2023-03-03T15:35:37;27.97;;;23.23;;
20110;SDS011;10216;42.658;23.248;2023-03-03T15:38:16;18.50;;;16.10;;
20110;SDS011;10216;42.658;23.248;2023-03-03T15:40:50;18.53;;;15.70;;
20110;SDS011;10216;42.658;23.248;2023-03-03T15:48:34;20.13;;;17.07;;
20110;SDS011;10216;42.658;23.248;2023-03-03T15:51:29;18.27;;;15.77;;
20110;SDS011;10216;42.658;23.248;2023-03-03T16:01:55;22.87;;;20.07;;
20110;SDS011;10216;42.658;23.248;2023-03-03T16:04:32;26.13;;;22.63;;
20110;SDS011;10216;42.658;23.248;2023-03-03T16:09:49;22.53;;;20.10;;
20110;SDS011;10216;42.658;23.248;2023-03-03T16:12:42;23.13;;;20.73;;
20110;SDS011;10216;42.658;23.248;2023-03-03T16:15:15;22.47;;;19.97;;
20110;SDS011;10216;42.658;23.248;2023-03-03T16:30:30;23.07;;;20.57;;
20110;SDS011;10216;42.658;23.248;2023-03-03T16:35:25;24.57;;;21.90;;
20110;SDS011;10216;42.658;23.248;2023-03-03T16:38:02;23.33;;;20.90;;
20110;SDS011;10216;42.658;23.248;2023-03-03T16:40:37;28.23;;;23.30;;
20110;SDS011;10216;42.658;23.248;2023-03-03T16:45:50;34.23;;;27.93;;
20110;SDS011;10216;42.658;23.248;2023-03-03T16:54:19;27.90;;;24.83;;
20110;SDS011;10216;42.658;23.248;2023-03-03T16:56:47;30.13;;;24.53;;
20110;SDS011;10216;42.658;23.248;2023-03-03T17:02:01;27.50;;;24.17;;
20110;SDS011;10216;42.658;23.248;2023-03-03T17:07:05;29.43;;;25.27;;
20110;SDS011;10216;42.658;23.248;2023-03-03T17:15:14;36.07;;;26.93;;
20110;SDS011;10216;42.658;23.248;2023-03-03T17:17:42;32.77;;;26.40;;
20110;SDS011;10216;42.658;23.248;2023-03-03T17:22:51;50.10;;;34.50;;
20110;SDS011;10216;42.658;23.248;2023-03-03T17:25:21;67.23;;;39.00;;
20110;SDS011;10216;42.658;23.248;2023-03-03T17:45:50;40.63;;;30.90;;
20110;SDS011;10216;42.658;23.248;2023-03-03T17:53:34;46.83;;;35.13;;
20110;SDS011;10216;42.658;23.248;2023-03-03T18:03:50;43.63;;;31.57;;
20110;SDS011;10216;42.658;23.248;2023-03-03T18:14:27;37.20;;;28.10;;
20110;SDS011;10216;42.658;23.248;2023-03-03T18:19:31;29.80;;;21.77;;
20110;SDS011;10216;42.658;23.248;2023-03-03T18:22:06;29.67;;;21.13;;
20110;SDS011;10216;42.658;23.248;2023-03-03T18:24:37;27.93;;;19.50;;
20110;SDS011;10216;42.658;23.248;2023-03-03T18:27:46;28.63;;;20.83;;
20110;SDS011;10216;42.658;23.248;2023-03-03T18:37:47;32.40;;;21.23;;
20110;SDS011;10216;42.658;23.248;2023-03-03T18:40:33;30.33;;;20.77;;
20110;SDS011;10216;42.658;23.248;2023-03-03T18:42:58;35.23;;;23.53;;
20110;SDS011;10216;42.658;23.248;2023-03-03T18:48:33;52.97;;;34.53;;
20110;SDS011;10216;42.658;23.248;2023-03-03T18:50:43;38.37;;;25.27;;
20110;SDS011;10216;42.658;23.248;2023-03-03T18:55:56;43.37;;;25.90;;
20110;SDS011;10216;42.658;23.248;2023-03-03T18:58:33;50.47;;;33.93;;
20110;SDS011;10216;42.658;23.248;2023-03-03T19:05:58;48.90;;;30.73;;
20110;SDS011;10216;42.658;23.248;2023-03-03T19:10:54;39.70;;;25.80;;
20110;SDS011;10216;42.658;23.248;2023-03-03T19:13:39;40.77;;;26.30;;
20110;SDS011;10216;42.658;23.248;2023-03-03T19:16:06;37.67;;;26.23;;
20110;SDS011;10216;42.658;23.248;2023-03-03T19:18:32;38.80;;;25.80;;
20110;SDS011;10216;42.658;23.248;2023-03-03T19:24:23;35.37;;;23.20;;
20110;SDS011;10216;42.658;23.248;2023-03-03T19:34:13;36.93;;;24.00;;
20110;SDS011;10216;42.658;23.248;2023-03-03T19:36:52;37.23;;;24.70;;
20110;SDS011;10216;42.658;23.248;2023-03-03T19:39:36;35.80;;;24.93;;
20110;SDS011;10216;42.658;23.248;2023-03-03T19:42:11;39.00;;;26.30;;
20110;SDS011;10216;42.658;23.248;2023-03-03T19:47:25;36.27;;;25.60;;
20110;SDS011;10216;42.658;23.248;2023-03-03T19:57:40;36.97;;;26.00;;
20110;SDS011;10216;42.658;23.248;2023-03-03T20:05:06;43.33;;;28.20;;
20110;SDS011;10216;42.658;23.248;2023-03-03T20:15:39;47.83;;;30.43;;
20110;SDS011;10216;42.658;23.248;2023-03-03T20:25:45;44.93;;;30.17;;
20110;SDS011;10216;42.658;23.248;2023-03-03T20:36:13;46.33;;;31.03;;
20110;SDS011;10216;42.658;23.248;2023-03-03T20:56:27;46.37;;;33.17;;
20110;SDS011;10216;42.658;23.248;2023-03-03T21:04:15;36.23;;;27.60;;
20110;SDS011;10216;42.658;23.248;2023-03-03T21:06:41;34.63;;;23.03;;